Etusivu
METAR-TAF:

METAR-TAF

Lentoasemat :

Mauritius, Plaisance, Mauritius

Leveyspiiri: 20-26S, Pituuspiiri: 057-40E, korkeus merenpinnasta: 55 m

Tämänhetkinen sää

Tämä raportti tehtiin 1 tunti ja 14 minuuttia sitten, kello 19.00 UTC
Tuuli 9 kn idästä/kaakosta
Lämpötila 25°C
Kosteus 74%
Ilmanpaine 1019 hPa
Näkyvyys 10 km tai enemmän
Hajanaisia pilviä 1800 ft:n korkeudessa

METAR: FIMP 251900Z 11009KT 9999 SCT018 25/20 Q1019

Aika: 00:14 (20:14 UTC)

Sääennuste

Tämä raportti tehtiin 2 tuntia ja 59 minuuttia sitten, kello 17.15 UTC
Ennuste voimassa 25. päivästä klo 18 UTC - 27. päivään klo 00 UTC
Tuuli 10 kn idästä
Näkyvyys 10 km tai enemmän
Hajanaisia pilviä 1700 ft:n korkeudessa
Todennäköisyys 30% :
Ajoittain
26. päivästä klo 00 UTC - 26. päivään klo 04 UTC
Näkyvyys: 7000 m
Hajonneita pilviä 1500 ft:n korkeudessa
Hajonneita pilviä 5000 ft:n korkeudessa
heikkoja vesikuuroja

TAF: FIMP 251715Z 2518/2700 10010KT 9999 SCT017 PROB30 TEMPO 2600/2604 7000 -SHRA BKN015 BKN050

Säähavainnot ja -ennusteet yli 4000 lentoasemalta (METAR- ja TAF-raportit).

Käytössä olevat sääasemat on merkitty karttaan keltaisilla ja punaisilla pisteillä.

Aseta hiiri pisteen päälle nähdäksesi sääaseman nimen.

Klikkaa sitten nähdäksesi säähavainnot ja -ennusteet.

Kartan vaihtaminen: klikkaa mustalla rastilla varustettuja vihreitä pisteitä, niin voit zoomata sisään; viivalla varustettua vihreää pistettä, niin voit zoomata ulos tai vihreitä nuolia, niin pääset viereisille kartoille.


METAR-TAF: